Time;durP1;ratioP1;P1;durP2;ratioP2;P2;SDS_P1;SDS_P2;PMS_P1;PMS_P2;Temp;Humidity;BMP_temperature;BMP_pressure;BME280_temperature;BME280_humidity;BME280_pressure;Samples;Min_cycle;Max_cycle;Signal;HPM_P1;HPM_P2
2022/06/01 00:01:51;;;;;;;9.50;7.93;;;12.70;99.90;;;;;;5115897;28;20376;-66
2022/06/01 00:04:19;;;;;;;9.23;8.07;;;12.70;99.90;;;;;;5097256;28;20771;-66
2022/06/01 00:06:45;;;;;;;11.07;8.30;;;12.70;99.90;;;;;;5115662;28;20837;-67
2022/06/01 00:09:11;;;;;;;9.77;8.37;;;12.70;99.90;;;;;;5115865;28;20285;-67
2022/06/01 00:11:37;;;;;;;11.83;8.27;;;12.80;99.90;;;;;;5115967;28;20044;-67
2022/06/01 00:14:03;;;;;;;10.87;8.60;;;12.70;99.90;;;;;;5115579;28;20277;-66
2022/06/01 00:16:28;;;;;;;9.57;8.57;;;12.80;99.90;;;;;;5097649;28;20040;-66
2022/06/01 00:18:54;;;;;;;9.40;8.27;;;12.80;99.90;;;;;;5097233;28;20277;-66
2022/06/01 00:21:20;;;;;;;10.17;8.63;;;12.70;99.90;;;;;;5081093;28;20097;-66
2022/06/01 00:23:46;;;;;;;11.87;8.97;;;12.70;99.90;;;;;;5114992;28;20483;-67
2022/06/01 00:26:11;;;;;;;9.93;8.30;;;12.80;99.90;;;;;;5115658;28;20058;-66
2022/06/01 00:28:37;;;;;;;10.53;8.37;;;12.80;99.90;;;;;;5097422;28;20455;-66
2022/06/01 00:31:03;;;;;;;10.37;8.67;;;12.70;99.90;;;;;;5097443;28;20058;-67
2022/06/01 00:33:30;;;;;;;10.40;8.40;;;12.80;99.90;;;;;;5115413;28;20083;-66
2022/06/01 00:35:55;;;;;;;10.17;8.33;;;12.80;99.90;;;;;;5115112;28;20292;-67
2022/06/01 00:38:22;;;;;;;12.10;9.07;;;12.80;99.90;;;;;;5115290;28;20282;-67
2022/06/01 00:40:48;;;;;;;10.87;9.33;;;12.80;99.90;;;;;;5115154;28;20073;-67
2022/06/01 00:43:39;;;;;;;9.80;8.80;;;12.80;99.90;;;;;;5097460;28;20289;-66
2022/06/01 00:46:04;;;;;;;11.57;9.53;;;12.80;99.90;;;;;;5114940;28;20282;-67
2022/06/01 00:48:33;;;;;;;11.83;9.53;;;12.80;99.90;;;;;;5096918;28;20286;-67
2022/06/01 00:50:59;;;;;;;13.53;10.10;;;12.80;99.90;;;;;;5114673;28;20048;-67
2022/06/01 00:53:28;;;;;;;13.00;9.43;;;12.80;99.90;;;;;;5115410;28;20385;-66
2022/06/01 00:56:01;;;;;;;11.93;9.83;;;12.80;99.90;;;;;;5114916;28;20051;-66
2022/06/01 00:58:36;;;;;;;14.23;10.13;;;12.70;99.90;;;;;;5115305;28;20274;-66
2022/06/01 01:01:04;;;;;;;12.07;9.68;;;12.70;99.90;;;;;;5114739;28;20285;-67
2022/06/01 01:03:34;;;;;;;12.50;9.67;;;12.70;99.90;;;;;;5114697;28;20040;-66
2022/06/01 01:06:15;;;;;;;13.57;10.57;;;12.70;99.90;;;;;;5114655;28;20360;-67
2022/06/01 01:08:42;;;;;;;13.17;10.03;;;12.70;99.90;;;;;;5114718;28;20637;-67
2022/06/01 01:11:10;;;;;;;12.53;10.63;;;12.70;99.90;;;;;;5114420;28;20364;-67
2022/06/01 01:13:39;;;;;;;12.27;10.20;;;12.70;99.90;;;;;;5114499;28;20294;-66
2022/06/01 01:16:04;;;;;;;12.10;10.90;;;12.70;99.90;;;;;;5113228;28;20345;-67
2022/06/01 01:18:38;;;;;;;11.67;10.37;;;12.70;99.90;;;;;;5114886;28;20317;-66
2022/06/01 01:21:29;;;;;;;12.33;10.27;;;12.70;99.90;;;;;;5114405;28;20040;-67
2022/06/01 01:24:23;;;;;;;12.37;10.50;;;12.60;99.90;;;;;;5114067;28;20281;-67
2022/06/01 01:26:51;;;;;;;15.07;10.57;;;12.60;99.90;;;;;;5114752;28;20300;-66
2022/06/01 01:29:34;;;;;;;12.17;10.97;;;12.60;99.90;;;;;;5114487;28;20282;-66
2022/06/01 01:32:00;;;;;;;11.67;10.47;;;12.60;99.90;;;;;;5114070;28;20294;-67
2022/06/01 01:34:26;;;;;;;13.47;11.53;;;12.50;99.90;;;;;;5114378;28;20308;-67
2022/06/01 01:36:56;;;;;;;12.67;10.83;;;12.50;99.90;;;;;;5095787;28;20277;-67
2022/06/01 01:39:23;;;;;;;14.10;11.67;;;12.50;99.90;;;;;;5114251;28;20078;-67
2022/06/01 01:41:52;;;;;;;14.20;12.70;;;12.40;99.90;;;;;;5114253;28;20278;-66
2022/06/01 01:44:29;;;;;;;12.87;11.57;;;12.40;99.90;;;;;;5113970;28;20614;-67
2022/06/01 01:46:56;;;;;;;12.63;11.43;;;12.40;99.90;;;;;;5113758;28;20282;-67
2022/06/01 01:49:32;;;;;;;16.47;12.00;;;12.30;99.90;;;;;;5113858;28;20285;-67
2022/06/01 01:52:02;;;;;;;16.80;12.40;;;12.30;99.90;;;;;;5113707;28;20350;-67
2022/06/01 01:54:56;;;;;;;14.13;12.63;;;12.20;99.90;;;;;;5114136;28;20281;-67
2022/06/01 01:57:33;;;;;;;13.33;11.67;;;12.20;99.90;;;;;;5113868;28;20296;-66
2022/06/01 02:00:14;;;;;;;15.30;12.13;;;12.20;99.90;;;;;;5113634;28;20281;-67
2022/06/01 02:03:07;;;;;;;14.73;11.97;;;12.20;99.90;;;;;;5114097;28;20280;-67
2022/06/01 02:06:04;;;;;;;13.40;12.00;;;12.20;99.90;;;;;;5113760;28;20289;-67
2022/06/01 02:08:46;;;;;;;13.70;11.03;;;12.20;99.90;;;;;;5095995;28;20288;-67
2022/06/01 02:14:25;;;;;;;13.53;11.93;;;12.10;99.90;;;;;;5113337;28;20659;-67
2022/06/01 02:17:20;;;;;;;13.77;12.45;;;12.20;99.90;;;;;;5113838;28;20277;-66
2022/06/01 02:19:57;;;;;;;14.88;12.18;;;12.10;99.90;;;;;;5108525;28;20052;-67
2022/06/01 02:22:24;;;;;;;13.37;11.97;;;12.00;99.90;;;;;;5113598;28;20096;-67
2022/06/01 02:24:50;;;;;;;13.13;11.83;;;12.00;99.90;;;;;;5113086;28;20301;-67
2022/06/01 02:27:16;;;;;;;13.87;12.40;;;12.00;99.90;;;;;;5113061;28;20288;-67
2022/06/01 02:29:57;;;;;;;13.17;11.77;;;11.90;99.90;;;;;;5095463;28;20372;-67
2022/06/01 02:32:26;;;;;;;13.80;12.33;;;11.90;99.90;;;;;;5113147;28;20294;-67
2022/06/01 02:34:54;;;;;;;14.20;12.70;;;11.90;99.90;;;;;;5113394;28;20284;-67
2022/06/01 02:37:22;;;;;;;13.57;12.17;;;11.90;99.90;;;;;;5112929;28;20753;-66
2022/06/01 02:39:52;;;;;;;14.13;12.73;;;11.80;99.90;;;;;;5113396;28;20289;-67
2022/06/01 02:42:30;;;;;;;14.40;13.00;;;11.80;99.90;;;;;;5094913;28;20289;-67
2022/06/01 02:45:04;;;;;;;14.00;12.70;;;11.70;99.90;;;;;;5097092;28;20273;-66
2022/06/01 02:47:32;;;;;;;13.77;12.23;;;11.70;99.90;;;;;;5113373;28;20323;-67
2022/06/01 02:49:59;;;;;;;14.43;12.77;;;11.70;99.90;;;;;;5113154;28;20281;-67
2022/06/01 02:52:25;;;;;;;14.83;13.37;;;11.70;99.90;;;;;;5112944;28;20765;-67
2022/06/01 02:54:54;;;;;;;15.50;12.20;;;11.70;99.90;;;;;;5113344;28;20276;-66
2022/06/01 02:57:21;;;;;;;15.23;13.30;;;11.70;99.90;;;;;;5112789;28;20277;-67
2022/06/01 02:59:47;;;;;;;14.57;13.07;;;11.70;99.90;;;;;;5113084;28;20327;-66
2022/06/01 03:02:13;;;;;;;14.20;12.70;;;11.70;99.90;;;;;;5094538;28;20286;-66
2022/06/01 03:04:41;;;;;;;13.77;12.37;;;11.70;99.90;;;;;;5113453;28;20277;-66
2022/06/01 03:07:06;;;;;;;14.37;12.97;;;11.70;99.90;;;;;;5112829;28;20277;-67
2022/06/01 03:09:33;;;;;;;14.07;12.73;;;11.70;99.90;;;;;;5095117;28;20292;-67
2022/06/01 03:11:59;;;;;;;14.03;12.53;;;11.60;99.90;;;;;;5113084;28;20085;-67
2022/06/01 03:14:25;;;;;;;14.37;12.90;;;11.60;99.90;;;;;;5112627;28;20840;-67
2022/06/01 03:16:52;;;;;;;16.47;13.27;;;11.60;99.90;;;;;;5112752;28;20279;-67
2022/06/01 03:19:17;;;;;;;13.70;12.03;;;11.60;99.90;;;;;;5112769;28;20281;-67
2022/06/01 03:21:43;;;;;;;13.73;12.40;;;11.60;99.90;;;;;;5112985;28;20342;-67
2022/06/01 03:24:09;;;;;;;14.60;13.10;;;11.60;99.90;;;;;;5112396;28;20403;-67
2022/06/01 03:26:36;;;;;;;14.53;13.03;;;11.70;99.90;;;;;;5112836;28;20044;-67
2022/06/01 03:29:03;;;;;;;15.03;13.17;;;11.70;99.90;;;;;;5112787;28;20273;-67
2022/06/01 03:31:30;;;;;;;14.30;12.80;;;11.70;99.90;;;;;;5112452;28;20324;-67
2022/06/01 03:33:55;;;;;;;13.73;12.20;;;11.70;99.90;;;;;;5094750;28;20692;-67
2022/06/01 03:36:22;;;;;;;14.60;13.03;;;11.60;99.90;;;;;;5094262;28;20368;-67
2022/06/01 03:38:47;;;;;;;15.00;13.20;;;11.70;99.90;;;;;;5114860;28;20050;-67
2022/06/01 03:41:13;;;;;;;14.10;12.70;;;11.70;99.90;;;;;;5116351;28;20269;-67
2022/06/01 03:46:23;;;;;;;14.90;13.50;;;11.70;99.90;;;;;;5116046;28;20509;-67
2022/06/01 03:48:49;;;;;;;14.53;13.13;;;11.70;99.90;;;;;;5116730;28;20278;-67
2022/06/01 03:51:16;;;;;;;14.30;12.90;;;11.80;99.90;;;;;;5116013;28;20047;-66
2022/06/01 03:53:42;;;;;;;14.30;12.80;;;11.70;99.90;;;;;;5116219;28;20765;-67
2022/06/01 03:56:08;;;;;;;13.67;12.27;;;11.80;99.90;;;;;;5098199;28;20285;-67
2022/06/01 03:58:35;;;;;;;14.40;12.97;;;11.80;99.90;;;;;;5116046;28;20274;-67
2022/06/01 04:01:02;;;;;;;14.60;13.20;;;11.80;99.90;;;;;;5116214;28;20282;-67
2022/06/01 04:03:29;;;;;;;16.50;13.57;;;11.80;99.90;;;;;;5115852;28;20671;-67
2022/06/01 04:05:55;;;;;;;14.07;12.67;;;11.80;99.90;;;;;;5116001;28;20273;-67
2022/06/01 04:08:21;;;;;;;15.00;13.50;;;11.80;99.90;;;;;;5115664;28;20274;-67
2022/06/01 04:10:48;;;;;;;13.93;12.53;;;11.90;99.90;;;;;;5097772;28;20691;-67
2022/06/01 04:13:14;;;;;;;16.17;14.57;;;11.90;99.90;;;;;;5097230;28;20335;-67
2022/06/01 04:15:40;;;;;;;15.23;13.63;;;11.90;99.90;;;;;;5116076;28;20702;-67
2022/06/01 04:18:07;;;;;;;15.83;14.27;;;11.90;99.90;;;;;;5115951;28;20274;-67
2022/06/01 04:20:32;;;;;;;14.47;12.87;;;11.90;99.90;;;;;;5097492;28;20641;-67
2022/06/01 04:23:00;;;;;;;16.10;14.47;;;11.90;99.90;;;;;;5115640;28;20269;-67
2022/06/01 04:25:27;;;;;;;15.27;13.77;;;11.90;99.90;;;;;;5115381;28;20130;-67
2022/06/01 04:27:53;;;;;;;15.30;13.80;;;12.00;99.90;;;;;;5115301;28;20369;-66
2022/06/01 04:30:20;;;;;;;16.80;15.10;;;12.00;99.90;;;;;;5115472;28;20365;-67
2022/06/01 04:32:49;;;;;;;14.83;13.30;;;12.00;99.90;;;;;;5115436;28;20466;-67
2022/06/01 04:35:16;;;;;;;15.20;13.73;;;12.00;99.90;;;;;;5115388;28;20365;-67
2022/06/01 04:37:42;;;;;;;17.10;15.33;;;12.00;99.90;;;;;;5115457;28;20615;-67
2022/06/01 04:40:09;;;;;;;16.17;14.57;;;12.00;99.90;;;;;;5097084;28;20334;-66
2022/06/01 04:42:35;;;;;;;15.73;13.77;;;12.00;99.90;;;;;;5115137;28;20372;-67
2022/06/01 04:45:02;;;;;;;15.93;14.37;;;12.00;99.90;;;;;;5115391;28;20361;-67
2022/06/01 04:47:28;;;;;;;15.13;13.53;;;11.90;99.90;;;;;;5115057;28;20282;-67
2022/06/01 04:49:53;;;;;;;15.90;14.30;;;11.90;99.90;;;;;;5115312;28;20285;-67
2022/06/01 04:52:19;;;;;;;16.47;14.70;;;11.80;99.90;;;;;;5114813;28;20040;-67
2022/06/01 04:54:45;;;;;;;15.70;14.07;;;11.80;99.90;;;;;;5115064;28;20396;-67
2022/06/01 04:57:10;;;;;;;16.60;14.90;;;11.80;99.90;;;;;;5115133;28;20082;-66
2022/06/01 04:59:36;;;;;;;17.17;14.97;;;11.80;99.90;;;;;;5114872;28;20055;-67
2022/06/01 05:02:02;;;;;;;15.27;13.73;;;11.80;99.90;;;;;;5115199;28;20568;-67
2022/06/01 05:04:28;;;;;;;14.20;12.77;;;11.80;99.90;;;;;;5114590;28;20047;-67
2022/06/01 05:06:58;;;;;;;16.47;14.13;;;11.80;99.90;;;;;;5114785;28;20274;-67
2022/06/01 05:09:24;;;;;;;14.90;13.20;;;11.70;99.90;;;;;;5114416;28;20066;-67
2022/06/01 05:11:49;;;;;;;15.30;13.80;;;11.80;99.90;;;;;;5114710;28;20282;-67
2022/06/01 05:14:15;;;;;;;15.13;13.60;;;11.80;99.90;;;;;;5114857;28;20296;-67
2022/06/01 05:16:41;;;;;;;15.80;14.30;;;11.80;99.90;;;;;;5096332;28;20399;-67
2022/06/01 05:19:06;;;;;;;15.07;13.60;;;11.80;99.90;;;;;;5114905;28;20126;-67
2022/06/01 05:21:32;;;;;;;16.87;14.73;;;11.80;99.90;;;;;;5114262;28;20040;-67
2022/06/01 05:23:58;;;;;;;14.70;13.20;;;11.80;99.90;;;;;;5114346;28;20040;-67
2022/06/01 05:26:24;;;;;;;16.10;14.33;;;11.90;99.90;;;;;;5092758;28;20139;-67
2022/06/01 05:28:50;;;;;;;18.03;15.70;;;11.90;99.90;;;;;;5094388;28;20131;-67
2022/06/01 05:31:18;;;;;;;16.37;13.87;;;12.00;99.90;;;;;;5093992;28;20394;-67
2022/06/01 05:33:44;;;;;;;16.27;14.60;;;12.00;99.90;;;;;;5093525;28;20044;-68
2022/06/01 05:36:12;;;;;;;16.40;14.80;;;12.00;99.90;;;;;;5093746;28;20765;-67
2022/06/01 05:38:37;;;;;;;15.07;13.63;;;12.10;99.90;;;;;;5075482;28;20278;-67
2022/06/01 05:41:03;;;;;;;14.40;13.00;;;12.20;99.90;;;;;;5093966;28;20290;-67
2022/06/01 05:43:29;;;;;;;16.13;14.53;;;12.20;99.90;;;;;;5093513;28;20539;-68
2022/06/01 05:45:55;;;;;;;13.60;12.30;;;12.30;99.90;;;;;;5093795;28;20044;-67
2022/06/01 05:48:22;;;;;;;14.27;12.87;;;12.30;99.90;;;;;;5093677;28;20075;-67
2022/06/01 05:50:48;;;;;;;14.67;13.27;;;12.40;99.90;;;;;;5093595;28;20393;-67
2022/06/01 05:53:14;;;;;;;13.07;11.77;;;12.40;99.90;;;;;;5093427;28;20317;-67
2022/06/01 05:55:40;;;;;;;13.97;12.57;;;12.50;99.90;;;;;;5075581;28;20048;-67
2022/06/01 05:58:18;;;;;;;13.40;11.90;;;12.60;99.90;;;;;;5093395;28;20278;-67
2022/06/01 06:00:46;;;;;;;13.93;11.00;;;12.70;99.90;;;;;;5092563;28;20048;-68
2022/06/01 06:03:12;;;;;;;14.27;11.90;;;12.90;99.90;;;;;;5093453;28;20320;-67
2022/06/01 06:08:24;;;;;;;12.50;11.20;;;13.40;99.90;;;;;;5078333;28;20641;-68
2022/06/01 06:10:50;;;;;;;11.30;10.20;;;13.50;99.90;;;;;;5093176;28;20044;-68
2022/06/01 06:13:16;;;;;;;13.40;12.10;;;13.60;99.90;;;;;;5093238;28;20431;-67
2022/06/01 06:15:42;;;;;;;13.70;12.27;;;13.60;99.90;;;;;;5092912;28;20051;-68
2022/06/01 06:18:11;;;;;;;13.13;11.83;;;13.50;99.90;;;;;;5093078;28;20449;-68
2022/06/01 06:20:40;;;;;;;13.77;12.37;;;13.60;99.90;;;;;;5075112;28;20694;-68
2022/06/01 06:23:05;;;;;;;14.40;12.47;;;13.90;99.90;;;;;;5093154;28;20278;-68
2022/06/01 06:25:31;;;;;;;13.47;12.13;;;14.00;99.90;;;;;;5105502;28;20290;-68
2022/06/01 06:27:57;;;;;;;14.43;12.93;;;14.00;99.90;;;;;;5113851;28;20049;-68
2022/06/01 06:30:22;;;;;;;16.33;14.63;;;14.00;99.90;;;;;;5113454;28;20487;-67
2022/06/01 06:32:49;;;;;;;15.27;13.70;;;;;;;;;;5112924;28;20040;-68
2022/06/01 06:35:14;;;;;;;18.43;14.90;;;14.00;99.90;;;;;;5113587;28;20044;-67
2022/06/01 06:37:41;;;;;;;15.23;13.60;;;14.10;99.90;;;;;;5113131;28;20291;-68
2022/06/01 06:40:08;;;;;;;16.83;12.80;;;14.10;99.90;;;;;;5113347;28;20051;-68
2022/06/01 06:42:34;;;;;;;14.73;13.23;;;14.20;99.90;;;;;;5113195;28;20357;-68
2022/06/01 06:45:02;;;;;;;13.90;12.23;;;14.30;99.90;;;;;;5113129;28;20317;-67
2022/06/01 06:47:29;;;;;;;14.33;12.00;;;14.30;99.90;;;;;;5095108;28;20066;-67
2022/06/01 06:49:54;;;;;;;11.80;10.60;;;14.10;99.90;;;;;;5095443;28;20373;-67
2022/06/01 06:52:20;;;;;;;11.33;10.13;;;13.90;99.90;;;;;;5113239;28;20384;-67
2022/06/01 06:54:46;;;;;;;12.43;11.13;;;13.70;99.90;;;;;;5078356;28;20105;-67
2022/06/01 06:57:12;;;;;;;13.27;11.73;;;13.60;99.90;;;;;;5113218;28;20051;-67
2022/06/01 06:59:37;;;;;;;15.40;12.17;;;13.50;99.90;;;;;;5112837;28;20051;-70
2022/06/01 07:02:04;;;;;;;13.77;12.47;;;13.50;99.90;;;;;;5113049;28;20059;-67
2022/06/01 07:04:29;;;;;;;16.17;12.00;;;13.50;99.90;;;;;;5113377;28;20043;-67
2022/06/01 07:06:55;;;;;;;13.70;12.40;;;13.50;99.90;;;;;;5112843;28;20330;-68
2022/06/01 07:09:20;;;;;;;15.00;12.40;;;13.50;99.90;;;;;;5095012;28;20044;-67
2022/06/01 07:11:46;;;;;;;16.30;12.67;;;13.50;99.90;;;;;;5112619;28;20050;-67
2022/06/01 07:14:12;;;;;;;14.57;12.53;;;13.50;99.90;;;;;;5115732;28;20558;-66
2022/06/01 07:16:38;;;;;;;17.40;13.83;;;13.50;99.90;;;;;;5116532;28;20055;-66
2022/06/01 07:19:05;;;;;;;15.43;13.83;;;13.50;99.90;;;;;;5117100;28;20051;-66
2022/06/01 07:21:31;;;;;;;15.60;13.67;;;13.60;99.90;;;;;;5117035;28;20274;-66
2022/06/01 07:23:57;;;;;;;16.80;14.47;;;13.70;99.90;;;;;;5116655;28;20277;-66
2022/06/01 07:26:26;;;;;;;16.50;14.83;;;13.80;99.90;;;;;;5116631;28;20799;-66
2022/06/01 07:28:53;;;;;;;16.17;14.53;;;13.90;99.90;;;;;;5116439;28;20051;-66
2022/06/01 07:31:19;;;;;;;16.57;14.57;;;14.10;99.90;;;;;;5116529;28;20858;-66
2022/06/01 07:33:46;;;;;;;15.90;14.40;;;14.30;99.90;;;;;;5116408;28;20380;-66
2022/06/01 07:36:13;;;;;;;14.33;12.93;;;14.60;99.90;;;;;;5116710;28;20273;-66
2022/06/01 07:44:21;;;;;;;13.00;11.80;;;;;;;;;;5116893;28;20502;-66
2022/06/01 07:46:47;;;;;;;15.37;13.07;;;;;;;;;;5116294;28;20281;-66
2022/06/01 07:49:14;;;;;;;14.13;11.90;;;;;;;;;;5116353;28;20089;-66
2022/06/01 07:51:40;;;;;;;12.67;11.37;;;18.50;99.90;;;;;;5115952;28;20787;-66
2022/06/01 07:54:06;;;;;;;12.17;11.00;;;19.40;99.90;;;;;;5116142;28;20131;-66
2022/06/01 07:56:33;;;;;;;10.60;9.60;;;20.60;99.90;;;;;;5116320;28;20044;-66
2022/06/01 07:58:59;;;;;;;11.70;10.30;;;22.00;99.90;;;;;;5097832;28;20048;-67
2022/06/01 08:01:25;;;;;;;11.80;10.03;;;22.70;99.90;;;;;;5098058;28;20120;-66
2022/06/01 08:03:59;;;;;;;9.37;8.37;;;22.90;94.90;;;;;;5115748;28;20036;-66
2022/06/01 08:06:26;;;;;;;11.27;10.00;;;22.60;78.80;;;;;;5115863;28;20039;-66
2022/06/01 08:08:53;;;;;;;8.60;7.80;;;22.10;87.10;;;;;;5115494;28;20045;-67
2022/06/01 08:11:19;;;;;;;6.50;5.53;;;;;;;;;;5116041;28;20044;-67
2022/06/01 08:13:44;;;;;;;5.77;4.33;;;23.60;77.10;;;;;;5115672;28;20051;-67
2022/06/01 08:16:10;;;;;;;6.07;4.87;;;24.80;70.30;;;;;;5115815;28;20047;-67
2022/06/01 08:18:36;;;;;;;7.77;5.73;;;25.40;61.70;;;;;;5115891;28;20040;-72
2022/06/01 08:21:03;;;;;;;5.97;4.30;;;25.40;58.40;;;;;;5097445;28;20045;-67
2022/06/01 08:23:31;;;;;;;5.33;4.07;;;25.00;55.80;;;;;;5115011;28;20411;-67
2022/06/01 08:25:57;;;;;;;5.83;4.60;;;24.20;52.20;;;;;;5115625;28;20078;-67
2022/06/01 08:28:24;;;;;;;7.57;4.57;;;23.30;55.30;;;;;;5115793;28;20130;-66
2022/06/01 08:30:50;;;;;;;6.83;4.90;;;22.60;56.20;;;;;;5115324;28;20122;-66
2022/06/01 08:33:16;;;;;;;7.20;4.90;;;22.00;57.80;;;;;;5115487;28;20127;-66
2022/06/01 08:35:44;;;;;;;9.50;5.00;;;;;;;;;;5115087;28;20480;-67
2022/06/01 08:38:10;;;;;;;6.73;5.27;;;20.90;60.70;;;;;;5115483;28;20100;-67
2022/06/01 08:40:51;;;;;;;5.93;5.10;;;20.90;63.40;;;;;;5115486;28;20368;-66
2022/06/01 08:43:19;;;;;;;6.10;5.13;;;21.10;63.50;;;;;;5115309;28;20040;-67
2022/06/01 08:45:50;;;;;;;7.27;4.73;;;20.90;64.30;;;;;;5115003;28;20075;-67
2022/06/01 08:48:28;;;;;;;7.17;5.27;;;20.70;62.70;;;;;;5115165;28;20047;-67
2022/06/01 08:50:54;;;;;;;6.20;4.57;;;20.60;62.40;;;;;;5115076;28;20392;-66
2022/06/01 08:53:22;;;;;;;6.20;4.50;;;20.40;64.60;;;;;;5115378;28;20036;-66
2022/06/01 08:55:57;;;;;;;6.67;4.73;;;20.40;64.10;;;;;;5114838;28;20051;-66
2022/06/01 08:58:46;;;;;;;;;;;20.20;64.50;;;;;;5115636;28;20128;-67
2022/06/01 09:01:31;;;;;;;6.10;4.30;;;20.00;65.80;;;;;;5088663;28;19920;-67
2022/06/01 09:04:16;;;;;;;7.03;4.37;;;19.80;66.60;;;;;;5114889;28;20051;-67
2022/06/01 09:06:48;;;;;;;6.32;4.45;;;19.70;68.50;;;;;;5115054;28;20079;-65
2022/06/01 09:09:35;;;;;;;6.23;4.33;;;19.80;67.80;;;;;;5114806;28;20043;-67
2022/06/01 09:12:03;;;;;;;6.57;4.03;;;19.80;68.00;;;;;;5114657;28;20052;-66
2022/06/01 09:14:37;;;;;;;5.07;3.90;;;19.90;68.60;;;;;;5114731;28;20052;-66
2022/06/01 09:17:03;;;;;;;6.25;3.78;;;20.00;66.80;;;;;;5079345;28;20538;-66
2022/06/01 09:22:37;;;;;;;6.20;4.13;;;19.80;66.50;;;;;;5079662;28;20048;-66
2022/06/01 09:25:08;;;;;;;5.93;3.92;;;19.30;68.60;;;;;;5114118;28;20099;-64
2022/06/01 09:27:41;;;;;;;5.23;4.20;;;19.10;83.10;;;;;;5114604;28;20450;-64
2022/06/01 09:30:25;;;;;;;6.73;3.93;;;;;;;;;;5113901;28;20049;-65
2022/06/01 09:33:02;;;;;;;4.83;3.70;;;;;;;;;;5114075;28;20043;-65
2022/06/01 09:35:29;;;;;;;3.80;2.63;;;;;;;;;;5113486;28;20554;-64
2022/06/01 09:37:55;;;;;;;4.63;3.33;;;;;;;;;;5114000;28;20054;-64
2022/06/01 09:40:23;;;;;;;4.33;2.80;;;18.60;70.80;;;;;;5114102;28;20094;-65
2022/06/01 09:42:52;;;;;;;4.33;2.63;;;18.50;72.00;;;;;;5114051;28;20126;-64
2022/06/01 09:45:28;;;;;;;5.47;2.40;;;18.50;71.70;;;;;;5114053;28;20042;-65
2022/06/01 09:48:37;;;;;;;4.37;2.40;;;18.40;72.50;;;;;;5113680;28;20108;-65
2022/06/01 09:51:08;;;;;;;3.73;2.43;;;18.50;73.70;;;;;;5100423;28;20058;-65
2022/06/01 09:53:46;;;;;;;3.73;2.60;;;18.40;79.40;;;;;;5113895;28;20386;-66
2022/06/01 09:56:16;;;;;;;4.17;2.60;;;;;;;;;;5113814;28;20678;-64
2022/06/01 10:07:05;;;;;;;4.47;2.20;;;;;;;;;;5113392;28;20083;-65
2022/06/01 10:09:33;;;;;;;5.20;2.57;;;17.70;99.90;;;;;;5113218;28;20040;-67
2022/06/01 10:12:37;;;;;;;6.33;3.27;;;17.20;97.70;;;;;;5095366;28;20086;-65
2022/06/01 10:15:12;;;;;;;4.60;2.90;;;17.00;99.90;;;;;;5112745;28;20047;-67
2022/06/01 10:17:44;;;;;;;6.00;2.80;;;16.70;99.90;;;;;;5113603;28;20047;-69
2022/06/01 10:20:10;;;;;;;3.77;2.00;;;;;;;;;;5062220;28;20094;-66
2022/06/01 10:23:05;;;;;;;2.80;1.60;;;16.20;99.90;;;;;;5113618;28;20075;-68
2022/06/01 10:25:50;;;;;;;2.97;1.88;;;16.20;99.90;;;;;;5104821;28;20483;-68
2022/06/01 10:28:21;;;;;;;4.80;2.27;;;16.10;99.90;;;;;;5113131;28;20134;-69
2022/06/01 10:30:53;;;;;;;3.13;1.70;;;15.90;99.90;;;;;;5095218;28;20466;-68
2022/06/01 10:33:34;;;;;;;2.73;1.60;;;15.80;99.90;;;;;;5111997;28;20503;-68
2022/06/01 10:36:12;;;;;;;2.37;1.27;;;15.80;99.90;;;;;;5111177;28;20078;-69
2022/06/01 10:38:50;;;;;;;1.83;1.20;;;15.80;99.90;;;;;;5113367;28;20047;-69
2022/06/01 10:41:57;;;;;;;1.50;0.97;;;15.90;99.90;;;;;;5112858;28;20048;-69
2022/06/01 10:44:32;;;;;;;1.57;1.17;;;15.90;99.90;;;;;;5039333;28;20045;-69
2022/06/01 10:47:12;;;;;;;1.27;0.90;;;16.00;99.90;;;;;;5051455;28;20122;-68
2022/06/01 10:49:56;;;;;;;1.50;1.00;;;16.20;99.90;;;;;;5093481;28;20058;-68
2022/06/01 10:52:39;;;;;;;1.77;1.30;;;16.40;99.90;;;;;;5117208;28;20092;-68
2022/06/01 10:55:17;;;;;;;2.00;1.10;;;16.50;99.90;;;;;;5117106;28;20439;-68
2022/06/01 10:57:46;;;;;;;1.83;1.07;;;16.70;99.90;;;;;;5117186;28;20097;-68
2022/06/01 11:00:20;;;;;;;1.47;1.10;;;16.90;99.90;;;;;;5117015;28;20048;-68
2022/06/01 11:03:08;;;;;;;2.40;1.00;;;17.10;99.90;;;;;;5117532;28;20115;-68
2022/06/01 11:06:04;;;;;;;2.70;1.70;;;17.30;99.90;;;;;;5117336;28;20055;-68
2022/06/01 11:08:41;;;;;;;3.33;1.97;;;17.50;99.40;;;;;;5117605;28;20131;-68
2022/06/01 11:11:37;;;;;;;3.00;1.67;;;17.80;99.90;;;;;;5117063;28;20090;-68
2022/06/01 11:14:10;;;;;;;4.63;2.35;;;17.90;99.80;;;;;;5092723;28;20073;-68
2022/06/01 11:16:51;;;;;;;3.93;2.30;;;17.90;96.40;;;;;;5116847;28;20043;-69
2022/06/01 11:19:43;;;;;;;5.70;3.10;;;18.00;98.80;;;;;;5098891;28;20058;-69
2022/06/01 11:22:50;;;;;;;5.07;2.40;;;17.80;97.40;;;;;;5116522;28;20040;-67
2022/06/01 11:25:28;;;;;;;5.30;2.80;;;17.40;98.00;;;;;;5108237;28;20055;-67
2022/06/01 11:28:08;;;;;;;4.60;2.10;;;16.90;99.90;;;;;;5116821;28;20052;-67
2022/06/01 11:31:11;;;;;;;5.30;2.37;;;16.60;99.90;;;;;;5116840;28;20122;-67
2022/06/01 11:33:44;;;;;;;13.50;3.70;;;16.30;99.90;;;;;;5116697;28;20083;-67
2022/06/01 11:36:26;;;;;;;10.70;3.60;;;16.10;99.90;;;;;;5116463;28;20043;-68
2022/06/01 11:39:27;;;;;;;3.93;1.57;;;16.00;99.90;;;;;;5098532;28;20043;-66
2022/06/01 11:42:18;;;;;;;9.63;2.10;;;15.60;99.90;;;;;;5113371;28;20062;-67
2022/06/01 11:45:07;;;;;;;5.73;2.10;;;;;;;;;;5116044;28;20080;-67
2022/06/01 11:47:46;;;;;;;3.73;1.40;;;14.90;99.90;;;;;;5113312;28;20054;-67
2022/06/01 11:50:25;;;;;;;3.73;1.63;;;14.70;99.90;;;;;;5116306;28;20399;-68
2022/06/01 11:52:56;;;;;;;4.47;1.73;;;14.50;99.90;;;;;;5116304;28;20083;-68
2022/06/01 11:55:31;;;;;;;3.80;1.77;;;14.40;99.90;;;;;;5097553;28;20484;-68
2022/06/01 11:58:11;;;;;;;2.87;1.40;;;14.40;99.90;;;;;;5116210;28;20048;-68
2022/06/01 12:00:47;;;;;;;3.73;1.60;;;14.40;99.90;;;;;;5116247;28;20085;-68
2022/06/01 12:03:24;;;;;;;3.07;1.43;;;14.50;99.90;;;;;;5116052;28;20051;-68
2022/06/01 12:06:08;;;;;;;3.17;1.40;;;14.50;99.90;;;;;;5116102;28;20575;-68
2022/06/01 12:08:54;;;;;;;3.42;1.40;;;14.40;99.90;;;;;;5098059;28;20483;-68
2022/06/01 12:11:42;;;;;;;3.90;1.90;;;14.40;99.90;;;;;;5097889;28;20047;-68
2022/06/01 12:14:29;;;;;;;3.40;1.60;;;14.40;99.90;;;;;;5115970;28;20305;-68
2022/06/01 12:17:23;;;;;;;4.10;1.70;;;14.50;99.90;;;;;;5115923;28;20043;-68
2022/06/01 12:20:19;;;;;;;4.70;1.60;;;14.50;99.90;;;;;;5116140;28;20567;-68
2022/06/01 12:28:43;;;;;;;3.13;1.77;;;14.50;99.90;;;;;;5115657;28;20239;-68
2022/06/01 12:31:12;;;;;;;2.67;1.40;;;14.60;99.90;;;;;;5115823;28;20043;-68
2022/06/01 12:34:03;;;;;;;2.60;1.67;;;14.70;99.90;;;;;;5115409;28;20475;-66
2022/06/01 12:36:37;;;;;;;3.93;1.90;;;14.90;99.90;;;;;;5115485;28;20143;-66
2022/06/01 12:39:12;;;;;;;3.28;1.88;;;15.10;99.90;;;;;;5115830;28;20047;-65
2022/06/01 12:41:40;;;;;;;4.18;2.17;;;15.30;99.90;;;;;;5115363;28;20054;-67
2022/06/01 12:44:09;;;;;;;5.90;2.20;;;15.40;99.90;;;;;;5115190;28;20057;-67
2022/06/01 12:46:39;;;;;;;6.43;1.67;;;15.40;99.90;;;;;;5115351;28;20074;-67
2022/06/01 12:49:45;;;;;;;3.47;1.90;;;15.50;99.90;;;;;;5115467;28;20043;-67
2022/06/01 12:52:20;;;;;;;6.50;2.00;;;15.60;99.90;;;;;;5052427;28;20045;-67
2022/06/01 12:55:01;;;;;;;6.20;2.50;;;15.60;99.90;;;;;;5090874;28;20128;-67
2022/06/01 12:57:31;;;;;;;5.20;2.27;;;15.60;99.90;;;;;;5115185;28;20039;-67
2022/06/01 13:00:02;;;;;;;4.77;2.67;;;15.70;99.90;;;;;;5115243;28;20039;-67
2022/06/01 13:02:28;;;;;;;4.30;2.00;;;;;;;;;;5115035;28;20051;-67
2022/06/01 13:04:56;;;;;;;4.40;1.93;;;;;;;;;;5115051;28;20040;-67
2022/06/01 13:07:44;;;;;;;3.40;1.70;;;15.90;99.90;;;;;;5115046;28;20139;-67
2022/06/01 13:10:14;;;;;;;4.30;2.00;;;15.80;99.90;;;;;;5097107;28;20081;-67
2022/06/01 13:12:40;;;;;;;3.57;1.60;;;15.80;99.90;;;;;;5096721;28;20043;-67
2022/06/01 13:15:13;;;;;;;5.20;2.17;;;15.80;99.90;;;;;;5114848;28;20057;-67
2022/06/01 13:17:47;;;;;;;5.87;1.90;;;15.90;99.90;;;;;;5114692;28;20040;-67
2022/06/01 13:20:14;;;;;;;6.20;2.53;;;15.80;99.90;;;;;;5115114;28;20050;-67
2022/06/01 13:22:43;;;;;;;4.60;2.07;;;15.70;99.90;;;;;;5114685;28;20039;-67
2022/06/01 13:25:15;;;;;;;3.67;2.10;;;15.80;99.90;;;;;;5096605;28;20055;-68
2022/06/01 13:27:42;;;;;;;3.93;2.00;;;15.90;99.90;;;;;;5114410;28;20488;-67
2022/06/01 13:30:11;;;;;;;4.63;2.30;;;16.10;99.90;;;;;;5096637;28;20138;-67
2022/06/01 13:32:43;;;;;;;3.03;1.97;;;16.10;99.90;;;;;;5114344;28;20054;-67
2022/06/01 13:35:28;;;;;;;4.07;2.60;;;16.10;99.90;;;;;;5114585;28;20117;-68